createdAt,value
2022-09-13T00:00:38.675Z,6.95
2022-09-13T00:03:05.309Z,5.53
2022-09-13T00:05:31.868Z,5.18
2022-09-13T00:07:58.447Z,7.15
2022-09-13T00:10:25.266Z,6.97
2022-09-13T00:12:51.892Z,6.88
2022-09-13T00:15:18.651Z,10.10
2022-09-13T00:17:45.282Z,9.65
2022-09-13T00:20:11.879Z,10.18
2022-09-13T00:22:38.515Z,6.72
2022-09-13T00:25:05.817Z,5.63
2022-09-13T00:27:33.414Z,5.90
2022-09-13T00:30:00.117Z,7.20
2022-09-13T00:32:26.928Z,6.45
2022-09-13T00:34:53.508Z,6.78
2022-09-13T00:37:20.131Z,6.07
2022-09-13T00:39:49.803Z,4.93
2022-09-13T00:42:16.782Z,5.63
2022-09-13T00:45:07.730Z,9.98
2022-09-13T00:47:40.606Z,6.03
2022-09-13T00:50:33.557Z,4.80
2022-09-13T00:53:11.626Z,6.95
2022-09-13T00:55:46.602Z,8.40
2022-09-13T01:00:40.581Z,12.50
2022-09-13T01:03:08.275Z,127.30
2022-09-13T01:05:43.077Z,104.40
2022-09-13T01:08:12.767Z,170.43
2022-09-13T01:10:41.797Z,322.75
2022-09-13T01:13:18.184Z,148.13
2022-09-13T01:15:44.907Z,157.70
2022-09-13T01:18:11.572Z,75.25
2022-09-13T01:20:57.360Z,322.20
2022-09-13T01:24:10.218Z,248.10
2022-09-13T01:26:52.761Z,158.63
2022-09-13T01:29:41.156Z,156.35
2022-09-13T01:32:11.893Z,170.95
2022-09-13T01:34:57.030Z,70.97
2022-09-13T01:37:44.815Z,33.65
2022-09-13T01:40:57.547Z,139.20
2022-09-13T01:43:36.094Z,134.98
2022-09-13T01:46:06.878Z,93.25
2022-09-13T01:49:13.224Z,95.72
2022-09-13T01:51:43.015Z,27.23
2022-09-13T01:54:18.040Z,69.00
2022-09-13T01:59:49.432Z,105.32
2022-09-13T02:02:23.861Z,109.28
2022-09-13T02:04:54.166Z,75.03
2022-09-13T02:07:24.476Z,57.83
2022-09-13T02:10:05.054Z,67.97
2022-09-13T02:12:32.022Z,31.85
2022-09-13T02:15:08.947Z,19.50
2022-09-13T02:17:39.638Z,38.75
2022-09-13T02:20:09.322Z,29.80
2022-09-13T02:22:39.050Z,57.97
2022-09-13T02:25:09.349Z,37.15
2022-09-13T02:27:36.116Z,7.90
2022-09-13T02:30:07.943Z,39.53
2022-09-13T02:32:42.989Z,59.17
2022-09-13T02:37:42.468Z,23.77
2022-09-13T02:40:12.994Z,129.05
2022-09-13T02:42:43.790Z,21.80
2022-09-13T02:45:10.835Z,44.75
2022-09-13T02:47:49.553Z,53.53
2022-09-13T02:50:34.299Z,101.15
2022-09-13T02:53:15.227Z,69.00
2022-09-13T02:55:53.922Z,62.80
2022-09-13T02:58:27.301Z,88.50
2022-09-13T03:00:54.173Z,59.03
2022-09-13T03:03:20.981Z,65.80
2022-09-13T03:05:49.681Z,60.03
2022-09-13T03:08:16.789Z,87.75
2022-09-13T03:11:09.190Z,74.55
2022-09-13T03:13:46.820Z,56.13
2022-09-13T03:16:23.504Z,126.68
2022-09-13T03:19:32.151Z,225.65
2022-09-13T03:22:14.071Z,462.88
2022-09-13T03:24:50.533Z,167.98
2022-09-13T03:27:29.269Z,108.40
2022-09-13T03:30:09.219Z,121.40
2022-09-13T03:32:44.816Z,93.03
2022-09-13T03:35:18.760Z,211.95
2022-09-13T03:37:57.280Z,58.03
2022-09-13T03:40:32.995Z,41.50
2022-09-13T03:43:08.355Z,70.85
2022-09-13T03:45:37.241Z,52.38
2022-09-13T03:48:04.149Z,7.55
2022-09-13T03:50:30.734Z,6.63
2022-09-13T03:53:02.876Z,9.80
2022-09-13T03:55:30.330Z,16.27
2022-09-13T03:57:56.912Z,10.68
2022-09-13T04:00:23.935Z,16.38
2022-09-13T04:02:50.951Z,16.33
2022-09-13T04:05:17.940Z,16.98
2022-09-13T04:07:44.606Z,13.27
2022-09-13T04:10:13.775Z,24.10
2022-09-13T04:12:41.397Z,10.68
2022-09-13T04:15:08.908Z,31.48
2022-09-13T04:17:36.336Z,19.92
2022-09-13T04:20:03.295Z,29.42
2022-09-13T04:22:29.849Z,22.83
2022-09-13T04:25:01.508Z,64.78
2022-09-13T04:27:29.014Z,72.28
2022-09-13T04:29:55.607Z,79.15
2022-09-13T04:32:22.257Z,179.43
2022-09-13T04:34:49.056Z,81.53
2022-09-13T04:37:15.687Z,265.05
2022-09-13T04:39:42.717Z,147.65
2022-09-13T04:42:10.362Z,47.65
2022-09-13T04:44:36.953Z,36.75
2022-09-13T04:47:03.840Z,28.45
2022-09-13T04:49:30.390Z,47.58
2022-09-13T04:51:57.391Z,57.13
2022-09-13T04:54:24.397Z,47.72
2022-09-13T04:56:50.962Z,30.88
2022-09-13T04:59:17.927Z,22.35
2022-09-13T05:01:44.783Z,35.60
2022-09-13T05:04:11.458Z,32.97
2022-09-13T05:06:38.319Z,22.30
2022-09-13T05:09:05.534Z,24.40
2022-09-13T05:11:32.112Z,19.85
2022-09-13T05:13:59.964Z,39.75
2022-09-13T05:16:30.616Z,21.10
2022-09-13T05:18:57.386Z,14.52
2022-09-13T05:21:24.265Z,17.45
2022-09-13T05:23:54.564Z,14.32
2022-09-13T05:26:25.644Z,10.65
2022-09-13T05:28:52.273Z,5.15
2022-09-13T05:31:18.818Z,5.30
2022-09-13T05:33:46.774Z,9.73
2022-09-13T05:36:13.338Z,10.88
2022-09-13T05:38:40.014Z,10.43
2022-09-13T05:41:06.687Z,17.38
2022-09-13T05:43:35.279Z,8.90
2022-09-13T05:46:10.280Z,11.30
2022-09-13T05:51:12.299Z,12.43
2022-09-13T05:53:42.278Z,4.75
2022-09-13T05:56:13.334Z,29.65
2022-09-13T05:58:44.292Z,6.40
2022-09-13T06:01:11.561Z,108.97
2022-09-13T06:03:38.243Z,174.48
2022-09-13T06:06:05.097Z,7.55
2022-09-13T06:08:32.438Z,99.43
2022-09-13T06:11:06.547Z,23.08
2022-09-13T06:13:33.205Z,59.93
2022-09-13T06:16:00.815Z,17.38
2022-09-13T06:18:27.507Z,15.75
2022-09-13T06:21:01.940Z,60.10
2022-09-13T06:23:29.048Z,18.58
2022-09-13T06:26:09.978Z,7.55
2022-09-13T06:28:37.547Z,25.60
2022-09-13T06:31:11.637Z,9.93
2022-09-13T06:33:39.513Z,62.10
2022-09-13T06:36:10.762Z,7.93
2022-09-13T06:38:37.402Z,41.38
2022-09-13T06:41:08.357Z,26.20
2022-09-13T06:43:34.979Z,48.35
2022-09-13T06:46:15.730Z,45.55
2022-09-13T06:48:43.470Z,43.00
2022-09-13T06:51:14.410Z,4.30
2022-09-13T06:53:41.382Z,6.43
2022-09-13T06:56:13.303Z,29.50
2022-09-13T06:58:40.764Z,5.93
2022-09-13T07:01:12.046Z,3.97
2022-09-13T07:03:39.689Z,14.65
2022-09-13T07:06:17.239Z,9.20
2022-09-13T07:08:47.395Z,7.63
2022-09-13T07:11:15.647Z,8.82
2022-09-13T07:13:42.209Z,4.05
2022-09-13T07:16:10.445Z,5.13
2022-09-13T07:18:37.481Z,3.88
2022-09-13T07:21:06.131Z,5.00
2022-09-13T07:23:33.570Z,4.38
2022-09-13T07:26:05.593Z,4.05
2022-09-13T07:28:37.158Z,7.47
2022-09-13T07:31:08.467Z,4.30
2022-09-13T07:33:35.140Z,5.65
2022-09-13T07:36:06.276Z,4.32
2022-09-13T07:38:35.866Z,3.58
2022-09-13T07:41:03.106Z,3.60
2022-09-13T07:43:29.711Z,4.05
2022-09-13T07:45:58.112Z,3.13
2022-09-13T07:48:25.212Z,4.70
2022-09-13T07:51:07.998Z,3.50
2022-09-13T07:53:35.188Z,4.25
2022-09-13T07:56:03.544Z,3.55
2022-09-13T07:58:30.357Z,2.80
2022-09-13T08:01:21.797Z,3.47
2022-09-13T08:03:52.368Z,2.90
2022-09-13T08:06:18.939Z,4.13
2022-09-13T08:08:45.586Z,4.90
2022-09-13T08:11:16.303Z,3.58
2022-09-13T08:13:42.927Z,4.05
2022-09-13T08:16:09.586Z,3.42
2022-09-13T08:18:36.172Z,4.10
2022-09-13T08:21:02.757Z,6.55
2022-09-13T08:23:29.710Z,4.88
2022-09-13T08:26:00.795Z,5.25
2022-09-13T08:28:27.866Z,4.25
2022-09-13T08:30:54.525Z,4.60
2022-09-13T08:33:21.271Z,5.32
2022-09-13T08:35:52.360Z,4.88
2022-09-13T08:38:19.547Z,4.32
2022-09-13T08:40:50.206Z,4.55
2022-09-13T08:43:47.840Z,5.82
2022-09-13T08:46:26.396Z,3.90
2022-09-13T08:48:55.460Z,3.65
2022-09-13T08:51:31.260Z,3.72
2022-09-13T08:53:58.141Z,4.85
2022-09-13T08:56:49.541Z,4.57
2022-09-13T08:59:37.363Z,3.45
2022-09-13T09:02:17.032Z,3.13
2022-09-13T09:04:58.696Z,3.33
2022-09-13T09:07:27.795Z,3.47
2022-09-13T09:09:56.715Z,3.53
2022-09-13T09:12:41.655Z,4.85
2022-09-13T09:15:25.719Z,3.15
2022-09-13T09:18:10.683Z,3.75
2022-09-13T09:20:40.406Z,2.97
2022-09-13T09:23:21.373Z,4.55
2022-09-13T09:25:49.047Z,3.72
2022-09-13T09:28:17.096Z,3.70
2022-09-13T09:31:01.397Z,4.22
2022-09-13T09:33:54.881Z,3.50
2022-09-13T09:36:43.394Z,3.20
2022-09-13T09:39:16.416Z,6.50
2022-09-13T09:41:44.142Z,4.05
2022-09-13T09:44:14.798Z,3.63
2022-09-13T09:46:41.700Z,3.22
2022-09-13T09:49:36.114Z,4.80
2022-09-13T09:52:06.594Z,3.80
2022-09-13T09:54:34.783Z,5.20
2022-09-13T09:57:01.372Z,5.43
2022-09-13T09:59:32.710Z,3.70
2022-09-13T10:02:00.359Z,4.13
2022-09-13T10:04:27.007Z,4.50
2022-09-13T10:07:15.983Z,2.95
2022-09-13T10:09:48.674Z,4.45
2022-09-13T10:12:15.260Z,3.78
2022-09-13T10:14:43.084Z,3.10
2022-09-13T10:17:26.795Z,3.38
2022-09-13T10:20:20.321Z,2.97
2022-09-13T10:22:47.467Z,3.25
2022-09-13T10:25:27.189Z,4.68
2022-09-13T10:27:57.347Z,2.88
2022-09-13T10:30:38.497Z,3.92
2022-09-13T10:33:05.235Z,6.15
2022-09-13T10:35:31.859Z,3.00
2022-09-13T10:37:58.436Z,3.55
2022-09-13T10:40:34.007Z,3.63
2022-09-13T10:43:03.734Z,4.80
2022-09-13T10:45:31.664Z,2.95
2022-09-13T10:48:03.959Z,3.88
2022-09-13T10:50:35.733Z,5.85
2022-09-13T10:53:03.248Z,3.47
2022-09-13T10:55:37.183Z,3.88
2022-09-13T10:58:07.927Z,4.63
2022-09-13T11:00:54.401Z,3.72
2022-09-13T11:03:33.704Z,3.22
2022-09-13T11:06:13.349Z,3.45
2022-09-13T11:09:05.225Z,3.00
2022-09-13T11:11:37.256Z,5.47
2022-09-13T11:14:18.971Z,2.80
2022-09-13T11:17:23.963Z,3.25
2022-09-13T11:19:56.878Z,4.57
2022-09-13T11:22:26.688Z,2.90
2022-09-13T11:25:09.869Z,3.63
2022-09-13T11:28:17.998Z,3.63
2022-09-13T11:31:13.934Z,8.27
2022-09-13T11:33:49.825Z,3.65
2022-09-13T11:36:29.897Z,3.15
2022-09-13T11:39:21.193Z,3.47
2022-09-13T11:42:09.330Z,5.60
2022-09-13T11:45:08.801Z,5.53
2022-09-13T11:47:48.376Z,3.03
2022-09-13T11:50:40.423Z,3.78
2022-09-13T11:53:44.970Z,3.08
2022-09-13T11:56:14.334Z,3.20
2022-09-13T11:59:22.409Z,3.50
2022-09-13T12:01:58.808Z,4.10
2022-09-13T12:04:33.771Z,4.45
2022-09-13T12:07:03.018Z,3.58
2022-09-13T12:09:32.652Z,4.75
2022-09-13T12:12:07.211Z,3.10
2022-09-13T12:14:52.319Z,3.33
2022-09-13T12:20:02.418Z,3.53
2022-09-13T12:22:32.749Z,3.30
2022-09-13T12:25:03.762Z,4.13
2022-09-13T12:27:42.227Z,3.00
2022-09-13T12:30:18.922Z,2.97
2022-09-13T12:32:46.378Z,3.50
2022-09-13T12:35:20.195Z,4.82
2022-09-13T12:38:05.017Z,3.43
2022-09-13T12:40:45.691Z,2.92
2022-09-13T12:43:27.316Z,3.65
2022-09-13T12:46:24.440Z,3.67
2022-09-13T12:49:31.278Z,3.03
2022-09-13T12:52:10.558Z,3.88
2022-09-13T12:54:49.364Z,3.78
2022-09-13T12:57:28.255Z,3.08
2022-09-13T12:59:57.799Z,3.30
2022-09-13T13:02:36.366Z,3.03
2022-09-13T13:05:27.572Z,3.10
2022-09-13T13:07:56.964Z,3.70
2022-09-13T13:10:34.273Z,4.57
2022-09-13T13:13:24.915Z,3.90
2022-09-13T13:15:51.787Z,2.80
2022-09-13T13:18:28.441Z,4.63
2022-09-13T13:20:54.890Z,4.25
2022-09-13T13:23:21.883Z,3.25
2022-09-13T13:26:01.250Z,3.63
2022-09-13T13:28:43.295Z,2.95
2022-09-13T13:31:11.021Z,3.60
2022-09-13T13:33:48.830Z,5.00
2022-09-13T13:36:33.629Z,3.53
2022-09-13T13:39:03.649Z,6.43
2022-09-13T13:41:33.563Z,3.22
2022-09-13T13:44:00.878Z,4.10
2022-09-13T13:46:29.759Z,4.15
2022-09-13T13:48:56.535Z,5.18
2022-09-13T13:51:24.591Z,4.95
2022-09-13T13:54:03.550Z,4.32
2022-09-13T13:56:35.691Z,3.40
2022-09-13T13:59:31.651Z,4.10
2022-09-13T14:02:02.048Z,2.85
2022-09-13T14:04:57.581Z,4.57
2022-09-13T14:07:38.729Z,3.15
2022-09-13T14:10:28.025Z,3.78
2022-09-13T14:13:05.843Z,3.03
2022-09-13T14:15:38.424Z,3.85
2022-09-13T14:18:19.966Z,3.10
2022-09-13T14:21:18.888Z,3.15
2022-09-13T14:23:45.476Z,3.30
2022-09-13T14:26:12.085Z,5.03
2022-09-13T14:28:39.083Z,2.80
2022-09-13T14:31:05.957Z,3.33
2022-09-13T14:33:35.392Z,3.35
2022-09-13T14:36:07.480Z,5.13
2022-09-13T14:38:35.906Z,5.20
2022-09-13T14:41:17.180Z,4.22
2022-09-13T14:43:44.130Z,3.55
2022-09-13T14:46:20.993Z,2.95
2022-09-13T14:48:55.598Z,4.50
2022-09-13T14:51:28.251Z,3.58
2022-09-13T14:54:09.697Z,2.67
2022-09-13T14:56:40.452Z,4.68
2022-09-13T14:59:13.181Z,3.70
2022-09-13T15:01:39.771Z,3.90
2022-09-13T15:04:07.332Z,3.65
2022-09-13T15:06:38.392Z,3.30
2022-09-13T15:09:11.192Z,4.43
2022-09-13T15:11:40.043Z,6.60
2022-09-13T15:14:26.221Z,2.75
2022-09-13T15:17:08.080Z,4.68
2022-09-13T15:19:51.394Z,3.40
2022-09-13T15:22:23.329Z,3.50
2022-09-13T15:24:54.875Z,2.90
2022-09-13T15:27:22.919Z,4.20
2022-09-13T15:29:50.938Z,5.80
2022-09-13T15:32:43.951Z,4.05
2022-09-13T15:35:43.855Z,2.92
2022-09-13T15:38:30.954Z,3.67
2022-09-13T15:41:03.476Z,3.83
2022-09-13T15:43:31.010Z,3.00
2022-09-13T15:45:58.856Z,5.22
2022-09-13T15:48:30.377Z,3.92
2022-09-13T15:51:11.378Z,3.42
2022-09-13T15:53:42.794Z,4.18
2022-09-13T15:56:12.191Z,3.15
2022-09-13T15:58:38.806Z,3.25
2022-09-13T16:01:05.665Z,4.00
2022-09-13T16:03:32.267Z,3.30
2022-09-13T16:05:59.384Z,4.30
2022-09-13T16:08:25.947Z,4.65
2022-09-13T16:10:52.546Z,2.97
2022-09-13T16:13:19.187Z,4.47
2022-09-13T16:15:45.969Z,3.47
2022-09-13T16:18:13.732Z,3.03
2022-09-13T16:20:40.291Z,4.40
2022-09-13T16:23:07.013Z,3.20
2022-09-13T16:25:34.947Z,3.97
2022-09-13T16:28:02.511Z,3.72
2022-09-13T16:30:30.612Z,4.25
2022-09-13T16:32:57.541Z,4.55
2022-09-13T16:35:28.300Z,3.70
2022-09-13T16:37:54.985Z,4.97
2022-09-13T16:40:21.747Z,3.55
2022-09-13T16:42:48.370Z,4.53
2022-09-13T16:45:15.100Z,4.43
2022-09-13T16:47:42.365Z,4.28
2022-09-13T16:50:09.332Z,3.30
2022-09-13T16:52:36.021Z,4.15
2022-09-13T16:55:02.894Z,4.05
2022-09-13T16:57:29.965Z,4.35
2022-09-13T16:59:58.535Z,4.60
2022-09-13T17:02:26.166Z,3.75
2022-09-13T17:04:53.054Z,3.92
2022-09-13T17:07:19.730Z,4.20
2022-09-13T17:09:46.482Z,6.20
2022-09-13T17:12:13.633Z,5.70
2022-09-13T17:14:42.690Z,6.55
2022-09-13T17:17:09.401Z,4.20
2022-09-13T17:19:36.019Z,7.85
2022-09-13T17:22:03.588Z,4.13
2022-09-13T17:24:33.443Z,5.70
2022-09-13T17:27:00.078Z,4.35
2022-09-13T17:29:30.940Z,4.32
2022-09-13T17:31:58.614Z,4.40
2022-09-13T17:34:25.265Z,4.68
2022-09-13T17:36:52.402Z,4.28
2022-09-13T17:39:19.406Z,6.00
2022-09-13T17:41:46.378Z,8.68
2022-09-13T17:44:12.944Z,4.28
2022-09-13T17:46:39.599Z,3.92
2022-09-13T17:49:06.235Z,3.10
2022-09-13T17:51:33.174Z,3.63
2022-09-13T17:54:01.373Z,4.00
2022-09-13T17:56:30.390Z,3.83
2022-09-13T17:59:18.293Z,4.00
2022-09-13T18:01:49.689Z,3.58
2022-09-13T18:04:17.293Z,3.67
2022-09-13T18:06:45.230Z,4.30
2022-09-13T18:09:12.550Z,4.32
2022-09-13T18:11:39.209Z,3.97
2022-09-13T18:14:06.015Z,5.00
2022-09-13T18:16:32.836Z,3.40
2022-09-13T18:19:00.023Z,3.95
2022-09-13T18:21:27.403Z,3.45
2022-09-13T18:23:58.139Z,5.53
2022-09-13T18:26:25.775Z,5.47
2022-09-13T18:28:57.082Z,5.20
2022-09-13T18:31:24.363Z,4.78
2022-09-13T18:33:55.822Z,4.60
2022-09-13T18:36:22.854Z,4.20
2022-09-13T18:38:49.621Z,3.38
2022-09-13T18:41:20.823Z,6.20
2022-09-13T18:43:52.969Z,5.45
2022-09-13T18:46:23.857Z,4.90
2022-09-13T18:48:52.913Z,4.32
2022-09-13T18:51:21.259Z,3.95
2022-09-13T18:53:47.939Z,5.20
2022-09-13T18:56:16.910Z,5.22
2022-09-13T18:58:43.828Z,6.00
2022-09-13T19:01:13.040Z,6.97
2022-09-13T19:03:40.169Z,4.60
2022-09-13T19:06:13.881Z,6.55
2022-09-13T19:08:41.161Z,4.88
2022-09-13T19:11:19.177Z,4.65
2022-09-13T19:13:54.482Z,6.03
2022-09-13T19:16:21.204Z,3.90
2022-09-13T19:18:51.379Z,4.95
2022-09-13T19:21:22.383Z,4.88
2022-09-13T19:23:59.400Z,4.65
2022-09-13T19:26:28.232Z,4.20
2022-09-13T19:29:04.448Z,4.63
2022-09-13T19:31:31.213Z,3.40
2022-09-13T19:33:58.077Z,3.78
2022-09-13T19:36:27.319Z,3.75
2022-09-13T19:38:57.147Z,5.22
2022-09-13T19:41:25.588Z,5.60
2022-09-13T19:43:56.235Z,4.15
2022-09-13T19:46:24.469Z,14.90
2022-09-13T19:48:51.753Z,5.28
2022-09-13T19:51:20.054Z,5.20
2022-09-13T19:53:56.892Z,4.60
2022-09-13T19:56:27.923Z,4.78
2022-09-13T19:58:54.614Z,4.35
2022-09-13T20:01:23.494Z,5.15
2022-09-13T20:03:52.549Z,5.18
2022-09-13T20:06:19.398Z,4.55
2022-09-13T20:08:46.136Z,4.97
2022-09-13T20:11:14.253Z,4.07
2022-09-13T20:13:40.825Z,4.50
2022-09-13T20:16:24.286Z,4.40
2022-09-13T20:18:51.171Z,3.80
2022-09-13T20:21:18.326Z,3.97
2022-09-13T20:23:45.150Z,6.53
2022-09-13T20:26:22.481Z,5.55
2022-09-13T20:28:50.254Z,4.53
2022-09-13T20:31:16.958Z,6.35
2022-09-13T20:33:43.594Z,4.00
2022-09-13T20:36:11.462Z,4.05
2022-09-13T20:38:38.446Z,7.40
2022-09-13T20:41:12.119Z,4.32
2022-09-13T20:43:38.887Z,3.95
2022-09-13T20:46:06.170Z,4.50
2022-09-13T20:48:33.363Z,4.07
2022-09-13T20:51:08.866Z,4.57
2022-09-13T20:53:35.580Z,5.93
2022-09-13T20:56:06.595Z,3.88
2022-09-13T20:58:33.201Z,4.22
2022-09-13T21:01:11.416Z,4.93
2022-09-13T21:03:38.973Z,4.82
2022-09-13T21:06:06.449Z,4.28
2022-09-13T21:08:42.125Z,5.57
2022-09-13T21:11:13.856Z,4.70
2022-09-13T21:13:56.092Z,6.20
2022-09-13T21:16:24.655Z,4.93
2022-09-13T21:18:51.408Z,4.60
2022-09-13T21:21:22.458Z,6.30
2022-09-13T21:23:49.258Z,3.90
2022-09-13T21:26:18.322Z,4.30
2022-09-13T21:28:45.001Z,5.35
2022-09-13T21:31:16.002Z,4.95
2022-09-13T21:33:45.211Z,4.28
2022-09-13T21:36:12.210Z,5.82
2022-09-13T21:38:39.147Z,8.38
2022-09-13T21:41:07.127Z,3.33
2022-09-13T21:43:34.175Z,5.57
2022-09-13T21:46:05.713Z,5.25
2022-09-13T21:48:33.271Z,4.43
2022-09-13T21:51:17.548Z,6.05
2022-09-13T21:53:44.675Z,4.25
2022-09-13T21:56:13.785Z,4.90
2022-09-13T21:58:40.552Z,5.07
2022-09-13T22:01:13.815Z,3.92
2022-09-13T22:03:42.390Z,3.33
2022-09-13T22:06:09.678Z,4.28
2022-09-13T22:08:37.652Z,4.75
2022-09-13T22:11:05.721Z,3.78
2022-09-13T22:13:33.819Z,3.80
2022-09-13T22:16:08.175Z,5.45
2022-09-13T22:18:34.932Z,3.30
2022-09-13T22:21:11.044Z,4.25
2022-09-13T22:23:37.727Z,3.90
2022-09-13T22:26:08.154Z,6.55
2022-09-13T22:28:35.079Z,4.20
2022-09-13T22:31:12.203Z,4.43
2022-09-13T22:33:39.328Z,4.65
2022-09-13T22:36:07.790Z,4.05
2022-09-13T22:38:34.847Z,3.60
2022-09-13T22:41:03.684Z,4.25
2022-09-13T22:43:30.551Z,6.13
2022-09-13T22:46:05.551Z,4.47
2022-09-13T22:48:32.251Z,3.90
2022-09-13T22:50:58.884Z,5.72
2022-09-13T22:53:26.789Z,4.38
2022-09-13T22:55:53.454Z,4.32
2022-09-13T22:58:20.107Z,3.92
2022-09-13T23:00:46.711Z,3.80
2022-09-13T23:03:13.389Z,6.60
2022-09-13T23:05:40.127Z,6.07
2022-09-13T23:08:07.104Z,4.60
2022-09-13T23:10:33.745Z,4.45
2022-09-13T23:13:00.603Z,5.65
2022-09-13T23:15:27.206Z,4.82
2022-09-13T23:17:53.871Z,5.45
2022-09-13T23:20:20.471Z,6.43
2022-09-13T23:22:47.240Z,4.15
2022-09-13T23:25:13.797Z,6.65
2022-09-13T23:27:40.344Z,4.78
2022-09-13T23:30:07.363Z,5.43
2022-09-13T23:32:33.903Z,3.80
2022-09-13T23:35:00.461Z,6.07
2022-09-13T23:37:27.025Z,5.07
2022-09-13T23:39:53.844Z,4.45
2022-09-13T23:42:20.420Z,5.88
2022-09-13T23:44:46.998Z,3.92
2022-09-13T23:47:13.611Z,4.53
2022-09-13T23:49:44.268Z,6.03
2022-09-13T23:52:10.883Z,5.55
2022-09-13T23:54:37.458Z,4.43
2022-09-13T23:57:04.077Z,6.05
2022-09-13T23:59:30.699Z,6.05
